sensor_id;sensor_type;location;lat;lon;timestamp;P1;durP1;ratioP1;P2;durP2;ratioP2
15363;SDS011;7781;49.690;6.472;2024-03-22T00:02:18;5.40;;;2.80;;
15363;SDS011;7781;49.690;6.472;2024-03-22T00:04:46;6.57;;;2.10;;
15363;SDS011;7781;49.690;6.472;2024-03-22T00:07:12;6.10;;;3.67;;
15363;SDS011;7781;49.690;6.472;2024-03-22T00:09:40;6.30;;;3.20;;
15363;SDS011;7781;49.690;6.472;2024-03-22T00:12:08;4.80;;;3.13;;
15363;SDS011;7781;49.690;6.472;2024-03-22T00:14:35;4.67;;;2.70;;
15363;SDS011;7781;49.690;6.472;2024-03-22T00:17:02;5.80;;;2.40;;
15363;SDS011;7781;49.690;6.472;2024-03-22T00:19:29;7.10;;;2.50;;
15363;SDS011;7781;49.690;6.472;2024-03-22T00:21:56;3.67;;;2.40;;
15363;SDS011;7781;49.690;6.472;2024-03-22T00:24:23;4.77;;;2.70;;
15363;SDS011;7781;49.690;6.472;2024-03-22T00:26:49;2.97;;;2.20;;
15363;SDS011;7781;49.690;6.472;2024-03-22T00:29:18;8.43;;;2.50;;
15363;SDS011;7781;49.690;6.472;2024-03-22T00:31:45;2.80;;;2.33;;
15363;SDS011;7781;49.690;6.472;2024-03-22T00:34:12;5.47;;;2.60;;
15363;SDS011;7781;49.690;6.472;2024-03-22T00:36:39;10.03;;;2.30;;
15363;SDS011;7781;49.690;6.472;2024-03-22T00:39:06;4.90;;;2.60;;
15363;SDS011;7781;49.690;6.472;2024-03-22T00:41:33;3.10;;;2.10;;
15363;SDS011;7781;49.690;6.472;2024-03-22T00:44:01;3.03;;;2.30;;
15363;SDS011;7781;49.690;6.472;2024-03-22T00:46:29;5.17;;;2.53;;
15363;SDS011;7781;49.690;6.472;2024-03-22T00:48:56;4.63;;;2.43;;
15363;SDS011;7781;49.690;6.472;2024-03-22T00:51:24;5.47;;;2.77;;
15363;SDS011;7781;49.690;6.472;2024-03-22T00:53:53;4.80;;;3.00;;
15363;SDS011;7781;49.690;6.472;2024-03-22T00:56:19;5.10;;;2.60;;
15363;SDS011;7781;49.690;6.472;2024-03-22T00:58:49;8.27;;;2.57;;
15363;SDS011;7781;49.690;6.472;2024-03-22T01:01:15;9.90;;;2.60;;
15363;SDS011;7781;49.690;6.472;2024-03-22T01:03:46;7.63;;;2.73;;
15363;SDS011;7781;49.690;6.472;2024-03-22T01:06:13;4.90;;;2.53;;
15363;SDS011;7781;49.690;6.472;2024-03-22T01:08:40;3.13;;;2.37;;
15363;SDS011;7781;49.690;6.472;2024-03-22T01:11:07;4.80;;;2.43;;
15363;SDS011;7781;49.690;6.472;2024-03-22T01:13:35;4.63;;;2.80;;
15363;SDS011;7781;49.690;6.472;2024-03-22T01:16:01;3.13;;;2.43;;
15363;SDS011;7781;49.690;6.472;2024-03-22T01:18:28;5.10;;;2.70;;
15363;SDS011;7781;49.690;6.472;2024-03-22T01:20:56;3.17;;;2.40;;
15363;SDS011;7781;49.690;6.472;2024-03-22T01:23:24;5.67;;;2.67;;
15363;SDS011;7781;49.690;6.472;2024-03-22T01:25:50;4.07;;;2.60;;
15363;SDS011;7781;49.690;6.472;2024-03-22T01:28:18;7.53;;;3.80;;
15363;SDS011;7781;49.690;6.472;2024-03-22T01:30:44;5.10;;;2.87;;
15363;SDS011;7781;49.690;6.472;2024-03-22T01:33:12;5.07;;;2.93;;
15363;SDS011;7781;49.690;6.472;2024-03-22T01:35:39;6.90;;;3.17;;
15363;SDS011;7781;49.690;6.472;2024-03-22T01:38:08;3.03;;;2.23;;
15363;SDS011;7781;49.690;6.472;2024-03-22T01:40:35;5.10;;;2.53;;
15363;SDS011;7781;49.690;6.472;2024-03-22T01:43:03;4.43;;;2.57;;
15363;SDS011;7781;49.690;6.472;2024-03-22T01:45:31;4.43;;;2.93;;
15363;SDS011;7781;49.690;6.472;2024-03-22T01:48:00;3.50;;;2.30;;
15363;SDS011;7781;49.690;6.472;2024-03-22T01:50:27;5.17;;;2.60;;
15363;SDS011;7781;49.690;6.472;2024-03-22T01:52:55;4.03;;;2.33;;
15363;SDS011;7781;49.690;6.472;2024-03-22T01:55:23;6.03;;;2.83;;
15363;SDS011;7781;49.690;6.472;2024-03-22T01:57:51;5.80;;;2.73;;
15363;SDS011;7781;49.690;6.472;2024-03-22T02:00:20;4.50;;;2.87;;
15363;SDS011;7781;49.690;6.472;2024-03-22T02:02:48;3.70;;;2.20;;
15363;SDS011;7781;49.690;6.472;2024-03-22T02:05:14;3.87;;;2.60;;
15363;SDS011;7781;49.690;6.472;2024-03-22T02:07:45;4.00;;;2.90;;
15363;SDS011;7781;49.690;6.472;2024-03-22T02:10:12;4.70;;;3.13;;
15363;SDS011;7781;49.690;6.472;2024-03-22T02:12:41;9.43;;;2.40;;
15363;SDS011;7781;49.690;6.472;2024-03-22T02:15:08;5.20;;;2.73;;
15363;SDS011;7781;49.690;6.472;2024-03-22T02:17:36;3.70;;;2.43;;
15363;SDS011;7781;49.690;6.472;2024-03-22T02:20:04;5.80;;;2.73;;
15363;SDS011;7781;49.690;6.472;2024-03-22T02:22:34;4.10;;;2.63;;
15363;SDS011;7781;49.690;6.472;2024-03-22T02:25:03;5.20;;;2.90;;
15363;SDS011;7781;49.690;6.472;2024-03-22T02:27:31;4.20;;;2.50;;
15363;SDS011;7781;49.690;6.472;2024-03-22T02:29:58;4.40;;;2.33;;
15363;SDS011;7781;49.690;6.472;2024-03-22T02:32:26;6.83;;;3.10;;
15363;SDS011;7781;49.690;6.472;2024-03-22T02:34:52;4.90;;;3.00;;
15363;SDS011;7781;49.690;6.472;2024-03-22T02:37:23;7.60;;;2.83;;
15363;SDS011;7781;49.690;6.472;2024-03-22T02:39:49;3.27;;;2.40;;
15363;SDS011;7781;49.690;6.472;2024-03-22T02:42:18;5.27;;;3.10;;
15363;SDS011;7781;49.690;6.472;2024-03-22T02:44:46;7.00;;;3.10;;
15363;SDS011;7781;49.690;6.472;2024-03-22T02:47:13;4.50;;;2.80;;
15363;SDS011;7781;49.690;6.472;2024-03-22T02:49:41;4.73;;;2.53;;
15363;SDS011;7781;49.690;6.472;2024-03-22T02:52:08;9.50;;;2.97;;
15363;SDS011;7781;49.690;6.472;2024-03-22T02:54:36;3.73;;;2.90;;
15363;SDS011;7781;49.690;6.472;2024-03-22T02:57:02;7.27;;;3.20;;
15363;SDS011;7781;49.690;6.472;2024-03-22T02:59:31;3.40;;;2.70;;
15363;SDS011;7781;49.690;6.472;2024-03-22T03:01:57;4.87;;;3.00;;
15363;SDS011;7781;49.690;6.472;2024-03-22T03:04:25;4.33;;;2.67;;
15363;SDS011;7781;49.690;6.472;2024-03-22T03:06:51;7.63;;;3.80;;
15363;SDS011;7781;49.690;6.472;2024-03-22T03:09:19;6.57;;;4.13;;
15363;SDS011;7781;49.690;6.472;2024-03-22T03:11:46;6.30;;;3.77;;
15363;SDS011;7781;49.690;6.472;2024-03-22T03:14:13;4.67;;;3.63;;
15363;SDS011;7781;49.690;6.472;2024-03-22T03:16:41;4.30;;;2.90;;
15363;SDS011;7781;49.690;6.472;2024-03-22T03:19:09;5.87;;;3.20;;
15363;SDS011;7781;49.690;6.472;2024-03-22T03:21:35;7.67;;;3.87;;
15363;SDS011;7781;49.690;6.472;2024-03-22T03:24:03;5.57;;;3.20;;
15363;SDS011;7781;49.690;6.472;2024-03-22T03:26:30;6.67;;;3.80;;
15363;SDS011;7781;49.690;6.472;2024-03-22T03:28:58;8.57;;;4.47;;
15363;SDS011;7781;49.690;6.472;2024-03-22T03:31:25;4.87;;;3.50;;
15363;SDS011;7781;49.690;6.472;2024-03-22T03:33:54;3.77;;;2.73;;
15363;SDS011;7781;49.690;6.472;2024-03-22T03:36:20;5.03;;;2.57;;
15363;SDS011;7781;49.690;6.472;2024-03-22T03:38:48;3.23;;;2.20;;
15363;SDS011;7781;49.690;6.472;2024-03-22T03:41:14;5.80;;;3.03;;
15363;SDS011;7781;49.690;6.472;2024-03-22T03:43:42;5.23;;;3.20;;
15363;SDS011;7781;49.690;6.472;2024-03-22T03:46:09;4.43;;;2.70;;
15363;SDS011;7781;49.690;6.472;2024-03-22T03:48:37;5.73;;;3.00;;
15363;SDS011;7781;49.690;6.472;2024-03-22T03:51:06;4.83;;;3.13;;
15363;SDS011;7781;49.690;6.472;2024-03-22T03:53:35;5.90;;;3.40;;
15363;SDS011;7781;49.690;6.472;2024-03-22T03:56:03;7.20;;;3.60;;
15363;SDS011;7781;49.690;6.472;2024-03-22T03:58:32;5.17;;;3.10;;
15363;SDS011;7781;49.690;6.472;2024-03-22T04:00:58;10.50;;;4.20;;
15363;SDS011;7781;49.690;6.472;2024-03-22T04:03:31;7.50;;;4.20;;
15363;SDS011;7781;49.690;6.472;2024-03-22T04:05:58;6.20;;;3.70;;
15363;SDS011;7781;49.690;6.472;2024-03-22T04:08:28;8.50;;;3.70;;
15363;SDS011;7781;49.690;6.472;2024-03-22T04:10:57;6.60;;;3.97;;
15363;SDS011;7781;49.690;6.472;2024-03-22T04:13:25;7.43;;;4.23;;
15363;SDS011;7781;49.690;6.472;2024-03-22T04:15:52;8.00;;;4.13;;
15363;SDS011;7781;49.690;6.472;2024-03-22T04:18:21;5.97;;;4.30;;
15363;SDS011;7781;49.690;6.472;2024-03-22T04:20:52;11.07;;;4.40;;
15363;SDS011;7781;49.690;6.472;2024-03-22T04:23:21;8.40;;;4.70;;
15363;SDS011;7781;49.690;6.472;2024-03-22T04:25:55;9.43;;;4.30;;
15363;SDS011;7781;49.690;6.472;2024-03-22T04:28:24;11.03;;;4.20;;
15363;SDS011;7781;49.690;6.472;2024-03-22T04:30:55;8.33;;;4.40;;
15363;SDS011;7781;49.690;6.472;2024-03-22T04:33:23;6.80;;;3.90;;
15363;SDS011;7781;49.690;6.472;2024-03-22T04:35:50;6.50;;;4.07;;
15363;SDS011;7781;49.690;6.472;2024-03-22T04:38:19;11.33;;;4.20;;
15363;SDS011;7781;49.690;6.472;2024-03-22T04:40:47;5.33;;;3.40;;
15363;SDS011;7781;49.690;6.472;2024-03-22T04:43:17;7.73;;;3.57;;
15363;SDS011;7781;49.690;6.472;2024-03-22T04:45:44;5.77;;;3.53;;
15363;SDS011;7781;49.690;6.472;2024-03-22T04:48:13;4.60;;;3.80;;
15363;SDS011;7781;49.690;6.472;2024-03-22T04:50:40;9.00;;;3.63;;
15363;SDS011;7781;49.690;6.472;2024-03-22T04:53:10;4.53;;;3.10;;
15363;SDS011;7781;49.690;6.472;2024-03-22T04:55:37;5.80;;;3.67;;
15363;SDS011;7781;49.690;6.472;2024-03-22T04:58:11;6.03;;;4.03;;
15363;SDS011;7781;49.690;6.472;2024-03-22T05:00:40;6.30;;;4.30;;
15363;SDS011;7781;49.690;6.472;2024-03-22T05:03:08;7.33;;;4.37;;
15363;SDS011;7781;49.690;6.472;2024-03-22T05:05:35;10.00;;;4.37;;
15363;SDS011;7781;49.690;6.472;2024-03-22T05:08:04;7.77;;;4.33;;
15363;SDS011;7781;49.690;6.472;2024-03-22T05:10:31;6.70;;;5.07;;
15363;SDS011;7781;49.690;6.472;2024-03-22T05:12:59;8.60;;;4.47;;
15363;SDS011;7781;49.690;6.472;2024-03-22T05:15:27;10.30;;;4.50;;
15363;SDS011;7781;49.690;6.472;2024-03-22T05:17:57;8.13;;;3.80;;
15363;SDS011;7781;49.690;6.472;2024-03-22T05:20:23;6.60;;;4.23;;
15363;SDS011;7781;49.690;6.472;2024-03-22T05:22:51;6.53;;;3.77;;
15363;SDS011;7781;49.690;6.472;2024-03-22T05:25:18;7.60;;;4.17;;
15363;SDS011;7781;49.690;6.472;2024-03-22T05:27:46;5.23;;;3.90;;
15363;SDS011;7781;49.690;6.472;2024-03-22T05:30:12;7.10;;;3.60;;
15363;SDS011;7781;49.690;6.472;2024-03-22T05:32:40;5.43;;;3.67;;
15363;SDS011;7781;49.690;6.472;2024-03-22T05:35:10;5.50;;;3.80;;
15363;SDS011;7781;49.690;6.472;2024-03-22T05:37:38;13.53;;;3.93;;
15363;SDS011;7781;49.690;6.472;2024-03-22T05:40:05;7.77;;;3.30;;
15363;SDS011;7781;49.690;6.472;2024-03-22T05:42:38;6.47;;;3.90;;
15363;SDS011;7781;49.690;6.472;2024-03-22T05:45:05;6.10;;;4.00;;
15363;SDS011;7781;49.690;6.472;2024-03-22T05:47:32;4.10;;;2.50;;
15363;SDS011;7781;49.690;6.472;2024-03-22T05:50:01;6.83;;;3.23;;
15363;SDS011;7781;49.690;6.472;2024-03-22T05:52:30;4.40;;;2.90;;
15363;SDS011;7781;49.690;6.472;2024-03-22T05:54:56;4.93;;;3.50;;
15363;SDS011;7781;49.690;6.472;2024-03-22T05:57:24;4.00;;;2.90;;
15363;SDS011;7781;49.690;6.472;2024-03-22T05:59:51;6.53;;;3.60;;
15363;SDS011;7781;49.690;6.472;2024-03-22T06:02:19;12.20;;;3.50;;
15363;SDS011;7781;49.690;6.472;2024-03-22T06:04:47;4.83;;;2.60;;
15363;SDS011;7781;49.690;6.472;2024-03-22T06:07:15;5.37;;;3.13;;
15363;SDS011;7781;49.690;6.472;2024-03-22T06:09:44;3.93;;;2.87;;
15363;SDS011;7781;49.690;6.472;2024-03-22T06:12:13;4.33;;;3.00;;
15363;SDS011;7781;49.690;6.472;2024-03-22T06:14:39;6.23;;;3.00;;
15363;SDS011;7781;49.690;6.472;2024-03-22T06:17:08;7.00;;;4.23;;
15363;SDS011;7781;49.690;6.472;2024-03-22T06:19:34;6.33;;;3.70;;
15363;SDS011;7781;49.690;6.472;2024-03-22T06:22:03;4.43;;;3.40;;
15363;SDS011;7781;49.690;6.472;2024-03-22T06:24:31;7.80;;;3.53;;
15363;SDS011;7781;49.690;6.472;2024-03-22T06:27:00;6.63;;;3.97;;
15363;SDS011;7781;49.690;6.472;2024-03-22T06:29:27;11.03;;;5.73;;
15363;SDS011;7781;49.690;6.472;2024-03-22T06:31:56;10.00;;;5.87;;
15363;SDS011;7781;49.690;6.472;2024-03-22T06:34:22;8.70;;;5.50;;
15363;SDS011;7781;49.690;6.472;2024-03-22T06:36:52;12.10;;;6.60;;
15363;SDS011;7781;49.690;6.472;2024-03-22T06:39:18;9.93;;;5.40;;
15363;SDS011;7781;49.690;6.472;2024-03-22T06:41:46;8.43;;;5.20;;
15363;SDS011;7781;49.690;6.472;2024-03-22T06:44:13;8.40;;;5.13;;
15363;SDS011;7781;49.690;6.472;2024-03-22T06:46:41;6.80;;;5.03;;
15363;SDS011;7781;49.690;6.472;2024-03-22T06:49:07;9.93;;;5.33;;
15363;SDS011;7781;49.690;6.472;2024-03-22T06:51:43;10.37;;;5.43;;
15363;SDS011;7781;49.690;6.472;2024-03-22T06:54:10;11.07;;;5.50;;
15363;SDS011;7781;49.690;6.472;2024-03-22T06:56:37;8.73;;;5.13;;
15363;SDS011;7781;49.690;6.472;2024-03-22T06:59:04;11.63;;;5.63;;
15363;SDS011;7781;49.690;6.472;2024-03-22T07:01:34;11.13;;;6.67;;
15363;SDS011;7781;49.690;6.472;2024-03-22T07:04:01;10.80;;;6.40;;
15363;SDS011;7781;49.690;6.472;2024-03-22T07:06:28;9.80;;;6.30;;
15363;SDS011;7781;49.690;6.472;2024-03-22T07:08:56;12.33;;;6.47;;
15363;SDS011;7781;49.690;6.472;2024-03-22T07:11:24;8.90;;;6.30;;
15363;SDS011;7781;49.690;6.472;2024-03-22T07:13:51;17.77;;;9.00;;
15363;SDS011;7781;49.690;6.472;2024-03-22T07:16:18;12.10;;;6.43;;
15363;SDS011;7781;49.690;6.472;2024-03-22T07:18:46;11.20;;;5.80;;
15363;SDS011;7781;49.690;6.472;2024-03-22T07:21:14;11.50;;;6.70;;
15363;SDS011;7781;49.690;6.472;2024-03-22T07:23:42;9.53;;;5.70;;
15363;SDS011;7781;49.690;6.472;2024-03-22T07:26:10;10.40;;;6.30;;
15363;SDS011;7781;49.690;6.472;2024-03-22T07:28:37;15.47;;;6.50;;
15363;SDS011;7781;49.690;6.472;2024-03-22T07:31:04;9.03;;;6.00;;
15363;SDS011;7781;49.690;6.472;2024-03-22T07:33:31;11.30;;;6.80;;
15363;SDS011;7781;49.690;6.472;2024-03-22T07:36:02;15.73;;;5.83;;
15363;SDS011;7781;49.690;6.472;2024-03-22T07:38:29;18.73;;;6.27;;
15363;SDS011;7781;49.690;6.472;2024-03-22T07:40:57;8.43;;;5.53;;
15363;SDS011;7781;49.690;6.472;2024-03-22T07:43:24;8.53;;;5.40;;
15363;SDS011;7781;49.690;6.472;2024-03-22T07:45:53;7.80;;;5.97;;
15363;SDS011;7781;49.690;6.472;2024-03-22T07:48:19;11.10;;;5.77;;
15363;SDS011;7781;49.690;6.472;2024-03-22T07:50:46;8.50;;;5.67;;
15363;SDS011;7781;49.690;6.472;2024-03-22T07:53:22;10.03;;;6.00;;
15363;SDS011;7781;49.690;6.472;2024-03-22T07:55:50;10.37;;;5.20;;
15363;SDS011;7781;49.690;6.472;2024-03-22T07:58:17;8.63;;;5.47;;
15363;SDS011;7781;49.690;6.472;2024-03-22T08:00:45;12.17;;;5.40;;
15363;SDS011;7781;49.690;6.472;2024-03-22T08:03:14;14.60;;;5.63;;
15363;SDS011;7781;49.690;6.472;2024-03-22T08:05:41;12.30;;;5.83;;
15363;SDS011;7781;49.690;6.472;2024-03-22T08:08:10;11.20;;;5.63;;
15363;SDS011;7781;49.690;6.472;2024-03-22T08:10:38;9.07;;;6.10;;
15363;SDS011;7781;49.690;6.472;2024-03-22T08:13:06;7.70;;;5.03;;
15363;SDS011;7781;49.690;6.472;2024-03-22T08:15:32;6.43;;;4.87;;
15363;SDS011;7781;49.690;6.472;2024-03-22T08:18:00;11.60;;;5.23;;
15363;SDS011;7781;49.690;6.472;2024-03-22T08:20:28;8.70;;;5.57;;
15363;SDS011;7781;49.690;6.472;2024-03-22T08:22:59;10.87;;;4.87;;
15363;SDS011;7781;49.690;6.472;2024-03-22T08:25:25;9.90;;;6.30;;
15363;SDS011;7781;49.690;6.472;2024-03-22T08:27:55;8.13;;;5.60;;
15363;SDS011;7781;49.690;6.472;2024-03-22T08:30:22;9.60;;;5.90;;
15363;SDS011;7781;49.690;6.472;2024-03-22T08:32:49;8.83;;;5.80;;
15363;SDS011;7781;49.690;6.472;2024-03-22T08:35:16;6.70;;;4.80;;
15363;SDS011;7781;49.690;6.472;2024-03-22T08:37:44;13.60;;;5.90;;
15363;SDS011;7781;49.690;6.472;2024-03-22T08:40:11;10.30;;;5.77;;
15363;SDS011;7781;49.690;6.472;2024-03-22T08:42:40;7.53;;;5.30;;
15363;SDS011;7781;49.690;6.472;2024-03-22T08:45:09;8.87;;;5.80;;
15363;SDS011;7781;49.690;6.472;2024-03-22T08:47:36;8.70;;;5.73;;
15363;SDS011;7781;49.690;6.472;2024-03-22T08:50:04;8.60;;;5.47;;
15363;SDS011;7781;49.690;6.472;2024-03-22T08:52:32;8.53;;;6.20;;
15363;SDS011;7781;49.690;6.472;2024-03-22T08:55:01;9.23;;;6.03;;
15363;SDS011;7781;49.690;6.472;2024-03-22T08:57:30;10.83;;;5.90;;
15363;SDS011;7781;49.690;6.472;2024-03-22T08:59:56;10.90;;;6.13;;
15363;SDS011;7781;49.690;6.472;2024-03-22T09:02:26;6.50;;;3.90;;
15363;SDS011;7781;49.690;6.472;2024-03-22T09:04:53;10.30;;;5.50;;
15363;SDS011;7781;49.690;6.472;2024-03-22T09:07:22;11.53;;;6.70;;
15363;SDS011;7781;49.690;6.472;2024-03-22T09:09:49;11.10;;;6.03;;
15363;SDS011;7781;49.690;6.472;2024-03-22T09:12:17;10.13;;;6.30;;
15363;SDS011;7781;49.690;6.472;2024-03-22T09:14:45;9.67;;;4.83;;
15363;SDS011;7781;49.690;6.472;2024-03-22T09:17:12;9.40;;;5.73;;
15363;SDS011;7781;49.690;6.472;2024-03-22T09:19:40;11.37;;;6.30;;
15363;SDS011;7781;49.690;6.472;2024-03-22T09:22:07;10.40;;;6.73;;
15363;SDS011;7781;49.690;6.472;2024-03-22T09:24:35;12.23;;;5.50;;
15363;SDS011;7781;49.690;6.472;2024-03-22T09:27:05;14.00;;;6.53;;
15363;SDS011;7781;49.690;6.472;2024-03-22T09:29:34;12.83;;;6.40;;
15363;SDS011;7781;49.690;6.472;2024-03-22T09:32:02;12.77;;;7.17;;
15363;SDS011;7781;49.690;6.472;2024-03-22T09:34:31;10.23;;;7.63;;
15363;SDS011;7781;49.690;6.472;2024-03-22T09:37:04;12.30;;;6.80;;
15363;SDS011;7781;49.690;6.472;2024-03-22T09:39:32;10.90;;;6.77;;
15363;SDS011;7781;49.690;6.472;2024-03-22T09:41:59;11.73;;;7.70;;
15363;SDS011;7781;49.690;6.472;2024-03-22T09:44:32;11.53;;;6.43;;
15363;SDS011;7781;49.690;6.472;2024-03-22T09:47:01;11.17;;;7.30;;
15363;SDS011;7781;49.690;6.472;2024-03-22T09:49:29;15.53;;;7.27;;
15363;SDS011;7781;49.690;6.472;2024-03-22T09:51:56;10.90;;;7.40;;
15363;SDS011;7781;49.690;6.472;2024-03-22T09:54:26;16.23;;;7.60;;
15363;SDS011;7781;49.690;6.472;2024-03-22T09:56:53;12.30;;;6.80;;
15363;SDS011;7781;49.690;6.472;2024-03-22T09:59:21;12.97;;;8.10;;
15363;SDS011;7781;49.690;6.472;2024-03-22T10:01:48;16.53;;;8.03;;
15363;SDS011;7781;49.690;6.472;2024-03-22T10:04:17;11.13;;;6.97;;
15363;SDS011;7781;49.690;6.472;2024-03-22T10:06:45;13.97;;;8.03;;
15363;SDS011;7781;49.690;6.472;2024-03-22T10:09:13;10.40;;;7.60;;
15363;SDS011;7781;49.690;6.472;2024-03-22T10:11:45;16.37;;;7.90;;
15363;SDS011;7781;49.690;6.472;2024-03-22T10:14:14;16.60;;;7.93;;
15363;SDS011;7781;49.690;6.472;2024-03-22T10:16:41;12.93;;;7.73;;
15363;SDS011;7781;49.690;6.472;2024-03-22T10:19:09;12.50;;;8.57;;
15363;SDS011;7781;49.690;6.472;2024-03-22T10:21:36;15.77;;;9.20;;
15363;SDS011;7781;49.690;6.472;2024-03-22T10:24:06;12.67;;;8.00;;
15363;SDS011;7781;49.690;6.472;2024-03-22T10:26:33;18.27;;;10.10;;
15363;SDS011;7781;49.690;6.472;2024-03-22T10:29:02;19.50;;;9.43;;
15363;SDS011;7781;49.690;6.472;2024-03-22T10:31:31;15.20;;;10.77;;
15363;SDS011;7781;49.690;6.472;2024-03-22T10:34:02;14.90;;;9.07;;
15363;SDS011;7781;49.690;6.472;2024-03-22T10:36:30;18.17;;;9.50;;
15363;SDS011;7781;49.690;6.472;2024-03-22T10:39:00;14.53;;;9.97;;
15363;SDS011;7781;49.690;6.472;2024-03-22T10:41:28;17.27;;;9.80;;
15363;SDS011;7781;49.690;6.472;2024-03-22T10:43:58;15.00;;;9.23;;
15363;SDS011;7781;49.690;6.472;2024-03-22T10:46:28;15.60;;;9.93;;
15363;SDS011;7781;49.690;6.472;2024-03-22T10:48:57;17.77;;;11.20;;
15363;SDS011;7781;49.690;6.472;2024-03-22T10:51:24;15.60;;;10.23;;
15363;SDS011;7781;49.690;6.472;2024-03-22T10:53:53;15.10;;;10.53;;
15363;SDS011;7781;49.690;6.472;2024-03-22T10:56:23;17.03;;;10.13;;
15363;SDS011;7781;49.690;6.472;2024-03-22T10:58:52;19.53;;;10.30;;
15363;SDS011;7781;49.690;6.472;2024-03-22T11:01:22;23.40;;;11.23;;
15363;SDS011;7781;49.690;6.472;2024-03-22T11:03:51;14.83;;;9.63;;
15363;SDS011;7781;49.690;6.472;2024-03-22T11:06:30;15.97;;;7.97;;
15363;SDS011;7781;49.690;6.472;2024-03-22T11:08:59;13.73;;;9.37;;
15363;SDS011;7781;49.690;6.472;2024-03-22T11:11:27;16.87;;;9.30;;
15363;SDS011;7781;49.690;6.472;2024-03-22T11:13:57;22.30;;;10.10;;
15363;SDS011;7781;49.690;6.472;2024-03-22T11:16:23;15.33;;;9.90;;
15363;SDS011;7781;49.690;6.472;2024-03-22T11:18:53;10.73;;;6.10;;
15363;SDS011;7781;49.690;6.472;2024-03-22T11:21:20;14.03;;;9.53;;
15363;SDS011;7781;49.690;6.472;2024-03-22T11:23:49;12.73;;;9.30;;
15363;SDS011;7781;49.690;6.472;2024-03-22T11:26:15;19.07;;;10.30;;
15363;SDS011;7781;49.690;6.472;2024-03-22T11:28:44;15.70;;;9.47;;
15363;SDS011;7781;49.690;6.472;2024-03-22T11:31:12;13.07;;;8.77;;
15363;SDS011;7781;49.690;6.472;2024-03-22T11:33:39;16.60;;;10.20;;
15363;SDS011;7781;49.690;6.472;2024-03-22T11:36:08;12.80;;;8.90;;
15363;SDS011;7781;49.690;6.472;2024-03-22T11:38:36;19.07;;;8.83;;
15363;SDS011;7781;49.690;6.472;2024-03-22T11:41:02;18.90;;;10.50;;
15363;SDS011;7781;49.690;6.472;2024-03-22T11:43:30;19.27;;;10.53;;
15363;SDS011;7781;49.690;6.472;2024-03-22T11:45:57;14.97;;;10.07;;
15363;SDS011;7781;49.690;6.472;2024-03-22T11:48:27;16.50;;;9.90;;
15363;SDS011;7781;49.690;6.472;2024-03-22T11:50:54;18.73;;;10.73;;
15363;SDS011;7781;49.690;6.472;2024-03-22T11:53:28;13.60;;;10.03;;
15363;SDS011;7781;49.690;6.472;2024-03-22T11:55:57;13.23;;;10.20;;
15363;SDS011;7781;49.690;6.472;2024-03-22T11:58:26;20.00;;;10.73;;
15363;SDS011;7781;49.690;6.472;2024-03-22T12:00:53;17.10;;;9.80;;
15363;SDS011;7781;49.690;6.472;2024-03-22T12:03:22;15.93;;;10.03;;
15363;SDS011;7781;49.690;6.472;2024-03-22T12:05:54;18.53;;;10.33;;
15363;SDS011;7781;49.690;6.472;2024-03-22T12:08:22;19.10;;;11.77;;
15363;SDS011;7781;49.690;6.472;2024-03-22T12:10:49;16.20;;;10.53;;
15363;SDS011;7781;49.690;6.472;2024-03-22T12:13:17;21.33;;;11.27;;
15363;SDS011;7781;49.690;6.472;2024-03-22T12:15:44;21.40;;;11.10;;
15363;SDS011;7781;49.690;6.472;2024-03-22T12:18:11;16.23;;;11.47;;
15363;SDS011;7781;49.690;6.472;2024-03-22T12:20:38;17.17;;;10.27;;
15363;SDS011;7781;49.690;6.472;2024-03-22T12:23:07;16.03;;;10.27;;
15363;SDS011;7781;49.690;6.472;2024-03-22T12:25:35;17.90;;;10.07;;
15363;SDS011;7781;49.690;6.472;2024-03-22T12:28:07;16.23;;;10.60;;
15363;SDS011;7781;49.690;6.472;2024-03-22T12:30:34;17.23;;;11.20;;
15363;SDS011;7781;49.690;6.472;2024-03-22T12:33:03;17.43;;;10.63;;
15363;SDS011;7781;49.690;6.472;2024-03-22T12:35:34;15.43;;;9.63;;
15363;SDS011;7781;49.690;6.472;2024-03-22T12:38:02;13.30;;;9.93;;
15363;SDS011;7781;49.690;6.472;2024-03-22T12:40:29;21.13;;;10.20;;
15363;SDS011;7781;49.690;6.472;2024-03-22T12:42:58;23.40;;;10.27;;
15363;SDS011;7781;49.690;6.472;2024-03-22T12:45:26;22.43;;;10.13;;
15363;SDS011;7781;49.690;6.472;2024-03-22T12:47:54;18.80;;;10.67;;
15363;SDS011;7781;49.690;6.472;2024-03-22T12:50:21;16.50;;;9.27;;
15363;SDS011;7781;49.690;6.472;2024-03-22T12:52:49;17.60;;;10.50;;
15363;SDS011;7781;49.690;6.472;2024-03-22T12:55:16;14.80;;;9.47;;
15363;SDS011;7781;49.690;6.472;2024-03-22T12:57:45;15.60;;;9.90;;
15363;SDS011;7781;49.690;6.472;2024-03-22T13:00:15;13.70;;;9.97;;
15363;SDS011;7781;49.690;6.472;2024-03-22T13:02:50;13.80;;;10.40;;
15363;SDS011;7781;49.690;6.472;2024-03-22T13:05:17;18.67;;;9.83;;
15363;SDS011;7781;49.690;6.472;2024-03-22T13:07:45;16.23;;;10.47;;
15363;SDS011;7781;49.690;6.472;2024-03-22T13:10:14;17.97;;;9.40;;
15363;SDS011;7781;49.690;6.472;2024-03-22T13:12:43;12.27;;;9.00;;
15363;SDS011;7781;49.690;6.472;2024-03-22T13:15:10;17.17;;;8.53;;
15363;SDS011;7781;49.690;6.472;2024-03-22T13:17:37;8.20;;;5.80;;
15363;SDS011;7781;49.690;6.472;2024-03-22T13:20:08;15.23;;;8.00;;
15363;SDS011;7781;49.690;6.472;2024-03-22T13:22:40;13.63;;;8.87;;
15363;SDS011;7781;49.690;6.472;2024-03-22T13:25:07;10.87;;;6.50;;
15363;SDS011;7781;49.690;6.472;2024-03-22T13:27:38;16.43;;;7.97;;
15363;SDS011;7781;49.690;6.472;2024-03-22T13:30:05;10.43;;;6.80;;
15363;SDS011;7781;49.690;6.472;2024-03-22T13:32:36;15.00;;;6.77;;
15363;SDS011;7781;49.690;6.472;2024-03-22T13:35:05;10.07;;;4.77;;
15363;SDS011;7781;49.690;6.472;2024-03-22T13:37:34;9.53;;;5.43;;
15363;SDS011;7781;49.690;6.472;2024-03-22T13:40:01;8.40;;;5.27;;
15363;SDS011;7781;49.690;6.472;2024-03-22T13:42:29;8.50;;;5.10;;
15363;SDS011;7781;49.690;6.472;2024-03-22T13:44:56;15.03;;;5.53;;
15363;SDS011;7781;49.690;6.472;2024-03-22T13:47:23;12.93;;;5.60;;
15363;SDS011;7781;49.690;6.472;2024-03-22T13:49:53;8.97;;;4.83;;
15363;SDS011;7781;49.690;6.472;2024-03-22T13:52:22;7.40;;;5.03;;
15363;SDS011;7781;49.690;6.472;2024-03-22T13:54:50;12.90;;;4.90;;
15363;SDS011;7781;49.690;6.472;2024-03-22T13:57:19;5.90;;;4.50;;
15363;SDS011;7781;49.690;6.472;2024-03-22T13:59:45;7.40;;;4.50;;
15363;SDS011;7781;49.690;6.472;2024-03-22T14:02:13;6.53;;;4.00;;
15363;SDS011;7781;49.690;6.472;2024-03-22T14:04:39;9.97;;;5.30;;
15363;SDS011;7781;49.690;6.472;2024-03-22T14:07:07;9.70;;;5.10;;
15363;SDS011;7781;49.690;6.472;2024-03-22T14:09:37;6.50;;;4.57;;
15363;SDS011;7781;49.690;6.472;2024-03-22T14:12:05;8.17;;;4.37;;
15363;SDS011;7781;49.690;6.472;2024-03-22T14:14:33;5.97;;;4.50;;
15363;SDS011;7781;49.690;6.472;2024-03-22T14:17:00;8.93;;;4.47;;
15363;SDS011;7781;49.690;6.472;2024-03-22T14:19:51;6.70;;;3.73;;
15363;SDS011;7781;49.690;6.472;2024-03-22T14:22:18;8.00;;;4.00;;
15363;SDS011;7781;49.690;6.472;2024-03-22T14:24:46;6.70;;;3.90;;
15363;SDS011;7781;49.690;6.472;2024-03-22T14:27:14;6.60;;;3.90;;
15363;SDS011;7781;49.690;6.472;2024-03-22T14:29:41;4.97;;;4.00;;
15363;SDS011;7781;49.690;6.472;2024-03-22T14:32:09;8.20;;;4.20;;
15363;SDS011;7781;49.690;6.472;2024-03-22T14:34:35;5.77;;;3.77;;
15363;SDS011;7781;49.690;6.472;2024-03-22T14:37:04;6.83;;;4.30;;
15363;SDS011;7781;49.690;6.472;2024-03-22T14:39:30;9.57;;;4.40;;
15363;SDS011;7781;49.690;6.472;2024-03-22T14:42:00;12.40;;;4.83;;
15363;SDS011;7781;49.690;6.472;2024-03-22T14:44:26;7.20;;;4.37;;
15363;SDS011;7781;49.690;6.472;2024-03-22T14:46:55;6.90;;;4.30;;
15363;SDS011;7781;49.690;6.472;2024-03-22T14:49:24;9.80;;;4.87;;
15363;SDS011;7781;49.690;6.472;2024-03-22T14:51:51;7.97;;;4.77;;
15363;SDS011;7781;49.690;6.472;2024-03-22T14:54:18;8.63;;;4.60;;
15363;SDS011;7781;49.690;6.472;2024-03-22T14:56:46;9.63;;;5.03;;
15363;SDS011;7781;49.690;6.472;2024-03-22T14:59:14;14.53;;;4.00;;
15363;SDS011;7781;49.690;6.472;2024-03-22T15:01:42;8.27;;;4.37;;